Guys Store, Texas
Current Conditions -  °F | °C
As of 10:15 PM on Wednesday 28 Jan 2015 (Local Time) from KDKR Reporting Station
Clear Clear  
Wind Chill: 63°   Ceiling: Unl
Heat Index: 63°   Visibility: 10mi
Dew Point: 52°   Wind: 8mph
Humidity: 68%   Direction: 170°S
Pressure: 30.14"   Gusts: NA
Location:  31.2807°N, 95.8748°W
Report Text: KDKR 290415Z AUTO 17007KT 10SM CLR 17/11 A3014 RMK AO2
Loading
Personal Weather Stations






























Interactive Weather Map New forecast layout! Learn more

10-Day Weather Forecast

Advertisements
Track Severe Weather on mobile